KBNO

Burns Municipal Airport

Burns, Oregon, USA
METAR KBNO 201853Z AUTO 08007KT 10SM CLR 18/M03 A3026 RMK AO2 SLP240 T01831028
Observed Flight Rules
Oct-20 @ 18:53 UTC (27 minutes ago) Visual Flight Rules
Wind Visibility Clouds
80° at 7 knots 10 miles
  • Clear skies
Temperatures Readings
Current 18°C / 64°F
Dewpoint -3°C / 27°F
Humidity 24%
Altimeter 30.26" Hg
Pressure 1024 hPa
Elevation 1264
METAR KBNO 201853Z AUTO 08007KT 10SM CLR 18/M03 A3026 RMK AO2 SLP240 T01831028
Observed Flight Rules
Oct-20 @ 18:53 UTC
(27 minutes ago)
VFR
Wind Visibility
80° at 7 knots 10 miles
Clouds
  • Clear skies
Temperature Dewpoint
18°C / 64°F -3°C / 27°F
Humidity Altimeter Pressure
24% 30.26" Hg 1024 hPa